This is the latest recevied weather packets stored in our database for station/object HB9MIR-13. If no packets are shown the sender has not sent any weather packets the latest 10 day(s).
| Time | Temp. | Humidity | Pressure | Rain* | Wind** | Luminosity | Snow |
|---|---|---|---|---|---|---|---|
| 1777462426 | 20° C | 40% | 1016.3 hPa | 0 mm | - | 796 W/m² | - |
| 1777461691 | 20.56° C | 43% | 1016.5 hPa | 0 mm | - | 797 W/m² | - |
| 1777460991 | 20° C | 43% | 1016.4 hPa | 0 mm | - | 791 W/m² | - |
| 1777460303 | 19.44° C | 40% | 1016.5 hPa | 0 mm | - | 816 W/m² | - |
| 1777459616 | 18.89° C | 42% | 1016.7 hPa | 0 mm | - | 800 W/m² | - |
| 1777458930 | 18.89° C | 39% | 1016.7 hPa | 0 mm | - | 775 W/m² | - |
| 1777458242 | 18.89° C | 46% | 1016.8 hPa | 0 mm | - | 740 W/m² | - |
| 1777457555 | 18.33° C | 44% | 1017.1 hPa | 0 mm | - | 780 W/m² | - |
| 1777456880 | 17.78° C | 44% | 1016.9 hPa | 0 mm | - | 720 W/m² | - |
| 1777456178 | 17.22° C | 46% | 1017.1 hPa | 0 mm | - | 774 W/m² | - |
| 1777455492 | 17.78° C | 44% | 1016.8 hPa | 0 mm | - | 727 W/m² | - |
| 1777454804 | 17.22° C | 43% | 1017 hPa | 0 mm | - | 795 W/m² | - |
| 1777454117 | 16.67° C | 43% | 1017.1 hPa | 0 mm | - | 725 W/m² | - |
| 1777453380 | 16.11° C | 46% | 1017.2 hPa | 0 mm | - | 716 W/m² | - |
| 1777452681 | 15° C | 49% | 1016.9 hPa | 0 mm | - | 273 W/m² | - |
| 1777451995 | 15° C | 47% | 1017 hPa | 0 mm | - | 343 W/m² | - |
| 1777451308 | 15° C | 49% | 1016.9 hPa | 0 mm | - | 249 W/m² | - |
| 1777450619 | 15° C | 49% | 1017 hPa | 0 mm | - | 440 W/m² | - |
| 1777449884 | 15° C | 49% | 1017 hPa | 0 mm | - | 465 W/m² | - |
| 1777449184 | 14.44° C | 50% | 1016.9 hPa | 0 mm | - | 255 W/m² | - |
| 1777448497 | 13.89° C | 53% | 1016.8 hPa | 0 mm | - | 201 W/m² | - |
| 1777447809 | 13.89° C | 51% | 1016.7 hPa | 0 mm | - | 183 W/m² | - |
| 1777447120 | 13.89° C | 53% | 1016.6 hPa | 0 mm | - | 150 W/m² | - |
| 1777446383 | 13.33° C | 52% | 1016.6 hPa | 0 mm | - | 121 W/m² | - |
| 1777445682 | 13.33° C | 54% | 1016.6 hPa | 0 mm | - | 91 W/m² | - |
* Rain latest hour (hover to see other rain measurements)
** Current wind speed in m/s (hover to see current wind gust speed)